RKJJ/KWJ METAR and TAF weather

Enter ICAO airport designator
Station Type Date Time Source
RKJJ METAR 2018/08/06 03:00 UTC NOAA

RKJJ 060300Z 01007KT 9999 FEW030 SCT200 34/23 Q1007 NOSIG


Station Type Date Time Source
RKJJ Decoded METAR 2018/08/06 03:00 UTC NOAA

Kwangju Ab, Korea, South (RKJJ) 35-07N 126-49E 13M
Aug 05, 2018 - 11:00 PM EDT / 2018.08.06 0300 UTC
Wind: from the N (010 degrees) at 8 MPH (7 KT):0
Visibility: greater than 7 mile(s):0
Sky conditions: partly cloudy
Temperature: 93 F (34 C)
Heat index: 101.8 F (38.8 C):1
Dew Point: 73 F (23 C)
Relative Humidity: 52%
Pressure (altimeter): 29.74 in. Hg (1007 hPa)
ob: RKJJ 060300Z 01007KT 9999 FEW030 SCT200 34/23 Q1007 NOSIG
cycle: 3

Station Type Date Time Source
RKJJ TAF 2018/08/07 18:45 UTC NOAA

TAF TAF RKJJ 0618/0724 21006KT 9999 BKN030 TN27/0621Z TX35/0706Z


Example: see airport list